createdAt,value
2023-04-01T00:09:44.968Z,98431.38
2023-04-01T00:24:47.751Z,98436.90
2023-04-01T00:39:50.406Z,98435.07
2023-04-01T00:54:58.653Z,98432.05
2023-04-01T01:10:01.282Z,98425.23
2023-04-01T01:25:23.100Z,98432.36
2023-04-01T01:40:28.347Z,98434.57
2023-04-01T01:55:37.155Z,98431.58
2023-04-01T02:10:44.580Z,98420.71
2023-04-01T02:25:48.553Z,98416.17
2023-04-01T02:40:57.635Z,98409.23
2023-04-01T02:56:00.657Z,98401.40
2023-04-01T03:11:03.358Z,98412.35
2023-04-01T03:26:06.007Z,98418.23
2023-04-01T03:41:13.619Z,98426.34
2023-04-01T03:56:16.605Z,98427.27
2023-04-01T04:11:21.155Z,98437.94
2023-04-01T04:26:23.757Z,98449.86
2023-04-01T04:41:26.995Z,98455.05
2023-04-01T04:56:29.755Z,98453.66
2023-04-01T05:11:32.422Z,98458.79
2023-04-01T05:26:38.333Z,98466.04
2023-04-01T05:41:41.560Z,98466.35
2023-04-01T05:56:45.033Z,98467.80
2023-04-01T06:12:21.393Z,98473.46
2023-04-01T06:27:52.487Z,98486.50
2023-04-01T06:43:02.406Z,98497.73
2023-04-01T06:58:11.893Z,98504.95
2023-04-01T07:13:48.896Z,98508.52
2023-04-01T07:28:53.912Z,98511.55
2023-04-01T07:44:16.341Z,98514.73
2023-04-01T07:59:25.759Z,98524.59
2023-04-01T08:14:49.375Z,98530.48
2023-04-01T08:30:15.966Z,98542.75
2023-04-01T08:45:44.895Z,98549.44
2023-04-01T09:00:57.282Z,98553.59
2023-04-01T09:16:18.711Z,98557.50
2023-04-01T09:31:46.131Z,98563.61
2023-04-01T09:47:20.001Z,98579.36
2023-04-01T10:02:44.268Z,98589.80
2023-04-01T10:18:14.704Z,98604.65
2023-04-01T10:33:49.434Z,98619.73
2023-04-01T10:48:54.989Z,98630.94
2023-04-01T11:04:35.614Z,98642.84
2023-04-01T11:20:16.294Z,98639.81
2023-04-01T11:35:37.008Z,98640.88
2023-04-01T11:50:59.885Z,98645.92
2023-04-01T12:06:15.015Z,98667.95
2023-04-01T12:21:33.137Z,98671.86
2023-04-01T12:36:51.221Z,98678.70
2023-04-01T12:52:19.634Z,98677.27
2023-04-01T13:07:50.495Z,98685.84
2023-04-01T13:22:58.999Z,98684.47
2023-04-01T13:38:31.002Z,98697.61
2023-04-01T13:54:11.071Z,98712.39
2023-04-01T14:09:34.178Z,98730.70
2023-04-01T14:24:58.380Z,98741.05
2023-04-01T14:40:41.032Z,98742.99
2023-04-01T14:55:43.779Z,98756.20
2023-04-01T15:11:11.655Z,98775.98
2023-04-01T15:26:33.882Z,98795.98
2023-04-01T15:41:57.256Z,98805.33
2023-04-01T15:56:59.797Z,98817.64
2023-04-01T16:12:05.630Z,98817.64
2023-04-01T16:27:35.158Z,98827.87
2023-04-01T16:42:48.220Z,98851.66
2023-04-01T16:57:59.429Z,98875.47
2023-04-01T17:13:20.909Z,98890.80
2023-04-01T17:28:37.947Z,98917.11
2023-04-01T17:44:17.296Z,98943.45
2023-04-01T17:59:36.999Z,98960.54
2023-04-01T18:15:20.877Z,98991.95
2023-04-01T18:30:30.800Z,99011.08
2023-04-01T18:45:59.035Z,99036.78
2023-04-01T19:01:25.375Z,99059.88
2023-04-01T19:17:00.451Z,99080.18
2023-04-01T19:32:29.393Z,99092.98
2023-04-01T19:47:53.455Z,99104.57
2023-04-01T20:03:04.314Z,99119.37
2023-04-01T20:18:29.700Z,99141.67
2023-04-01T20:34:00.344Z,99158.73
2023-04-01T20:49:12.080Z,99170.20
2023-04-01T21:04:52.030Z,99187.77
2023-04-01T21:20:07.503Z,99195.33
2023-04-01T21:35:43.634Z,99210.02
2023-04-01T21:50:56.635Z,99233.30
2023-04-01T22:06:21.838Z,99243.58
2023-04-01T22:21:41.609Z,99250.99
2023-04-01T22:37:01.305Z,99262.91
2023-04-01T22:52:17.440Z,99275.06
2023-04-01T23:07:48.017Z,99294.08
2023-04-01T23:23:03.314Z,99312.59
2023-04-01T23:38:09.596Z,99332.46
2023-04-01T23:53:19.532Z,99349.67
